Time;durP1;ratioP1;P1;durP2;ratioP2;P2;SDS_P1;SDS_P2;PMS_P1;PMS_P2;Temp;Humidity;BMP_temperature;BMP_pressure;BME280_temperature;BME280_humidity;BME280_pressure;Samples;Min_cycle;Max_cycle;Signal;HPM_P1;HPM_P2
2023/12/07 00:00:15;;;;;;;69.10;35.50;;;;;;;-1.69;71.97;100074.77;109414;1251;60108;-58
2023/12/07 00:02:43;;;;;;;75.20;36.90;;;;;;;-1.80;72.46;100073.09;109560;1251;73410;-59
2023/12/07 00:05:10;;;;;;;63.70;31.30;;;;;;;-1.78;72.31;100077.60;109646;1251;68994;-58
2023/12/07 00:07:38;;;;;;;42.50;26.40;;;;;;;-1.86;72.76;100077.98;109562;1251;72757;-60
2023/12/07 00:10:06;;;;;;;60.40;31.10;;;;;;;-1.86;72.81;100081.48;109598;1251;60499;-58
2023/12/07 00:12:34;;;;;;;63.60;32.50;;;;;;;-1.83;72.65;100082.26;109397;1251;60109;-57
2023/12/07 00:15:02;;;;;;;56.20;28.10;;;;;;;-1.78;72.22;100085.72;109649;1251;74701;-58
2023/12/07 00:17:30;;;;;;;52.90;28.60;;;;;;;-1.90;72.76;100085.04;109366;1251;68591;-58
2023/12/07 00:19:57;;;;;;;56.50;30.20;;;;;;;-1.95;73.02;100083.14;109418;1251;72713;-58
2023/12/07 00:22:26;;;;;;;66.20;33.10;;;;;;;-1.88;72.50;100086.29;109633;1251;61763;-58
2023/12/07 00:24:54;;;;;;;50.90;27.20;;;;;;;-1.87;72.18;100091.76;109597;1251;58979;-58
2023/12/07 00:27:22;;;;;;;60.90;31.00;;;;;;;-1.93;72.25;100090.48;109368;1250;74683;-58
2023/12/07 00:29:49;;;;;;;54.40;29.10;;;;;;;-2.01;72.57;100091.64;109644;1250;68798;-58
2023/12/07 00:32:17;;;;;;;56.40;31.10;;;;;;;-2.00;72.71;100095.05;109261;1251;72736;-57
2023/12/07 00:34:44;;;;;;;56.50;28.80;;;;;;;-1.99;72.45;100097.86;109607;1250;60496;-58
2023/12/07 00:37:13;;;;;;;60.40;32.30;;;;;;;-2.00;72.31;100093.42;109657;1250;60066;-58
2023/12/07 00:39:41;;;;;;;;;;;;;;;-1.93;71.79;100092.26;109612;1251;74741;-57
2023/12/07 00:42:09;;;;;;;51.70;27.60;;;;;;;-1.98;71.89;100092.19;109595;1251;67641;-59
2023/12/07 00:44:40;;;;;;;69.80;31.30;;;;;;;-2.00;71.83;100095.52;109491;1252;71433;-57
2023/12/07 00:47:08;;;;;;;74.30;35.70;;;;;;;-2.12;72.17;100095.71;109551;1251;60466;-58
2023/12/07 00:49:42;;;;;;;59.90;29.60;;;;;;;-2.22;72.60;100093.42;109545;1251;59007;-58
2023/12/07 00:52:10;;;;;;;62.40;30.00;;;;;;;-2.26;72.78;100093.71;109602;1251;74716;-58
2023/12/07 00:54:37;;;;;;;67.10;29.50;;;;;;;-2.26;72.97;100095.05;109584;1251;68727;-58
2023/12/07 00:57:06;;;;;;;52.70;28.20;;;;;;;-2.24;72.32;100092.95;109579;1251;72731;-58
2023/12/07 00:59:33;;;;;;;56.80;29.50;;;;;;;-2.32;72.81;100090.29;109612;1251;60919;-58
2023/12/07 01:02:02;;;;;;;69.50;35.30;;;;;;;-2.24;72.36;100092.44;109523;1251;60096;-58
2023/12/07 01:04:31;;;;;;;;;;;;;;;-2.22;72.17;100092.17;109582;1251;74703;-58
2023/12/07 01:06:58;;;;;;;;;;;;;;;-2.27;72.31;100095.58;109646;1251;67643;-58
2023/12/07 01:09:26;;;;;;;54.30;28.10;;;;;;;-2.35;72.60;100094.23;109622;1253;71469;-58
2023/12/07 01:11:54;;;;;;;54.30;28.30;;;;;;;-2.41;72.87;100091.63;109570;1251;60170;-58
2023/12/07 01:14:21;;;;;;;58.00;30.80;;;;;;;-2.38;72.41;100089.65;109580;1251;60085;-59
2023/12/07 01:16:49;;;;;;;62.10;32.50;;;;;;;-2.40;72.60;100088.77;109605;1251;74726;-58
2023/12/07 01:19:16;;;;;;;65.60;28.20;;;;;;;-2.44;72.70;100085.83;109258;1251;68850;-60
2023/12/07 01:21:44;;;;;;;51.40;25.70;;;;;;;-2.49;72.93;100082.14;109629;1251;72719;-58
2023/12/07 01:24:11;;;;;;;64.10;30.60;;;;;;;-2.44;72.58;100081.82;109545;1251;61756;-58
2023/12/07 01:26:43;;;;;;;56.90;28.70;;;;;;;-2.54;72.94;100078.11;109629;1251;58890;-58
2023/12/07 01:29:10;;;;;;;54.30;30.50;;;;;;;-2.65;73.65;100076.38;109620;1250;74742;-57
2023/12/07 01:31:38;;;;;;;52.50;28.10;;;;;;;-2.63;73.56;100077.48;109612;1251;68841;-59
2023/12/07 01:34:06;;;;;;;44.10;24.70;;;;;;;-2.67;73.76;100077.52;109560;1252;72733;-57
2023/12/07 01:36:33;;;;;;;61.90;31.40;;;;;;;-2.57;73.00;100074.36;109537;1252;59968;-58
2023/12/07 01:39:01;;;;;;;50.70;28.00;;;;;;;-2.58;72.72;100074.84;109591;1251;60079;-58
2023/12/07 01:41:28;;;;;;;50.50;24.40;;;;;;;-2.64;72.92;100078.78;109410;1253;74786;-58
2023/12/07 01:43:56;;;;;;;60.90;30.80;;;;;;;-2.69;73.36;100085.42;109322;1254;68841;-58
2023/12/07 01:46:23;;;;;;;77.90;37.20;;;;;;;-2.62;72.55;100082.71;109269;1254;72697;-58
2023/12/07 01:48:51;;;;;;;78.20;37.40;;;;;;;-2.67;72.40;100076.11;109266;1255;61785;-59
2023/12/07 01:51:19;;;;;;;57.70;28.50;;;;;;;-2.78;72.95;100072.81;109293;1254;60088;-58
2023/12/07 01:53:48;;;;;;;63.00;29.20;;;;;;;-2.72;72.34;100066.09;109313;1254;73449;-59
2023/12/07 01:56:16;;;;;;;54.90;28.20;;;;;;;-2.87;72.97;100061.66;109294;1253;68817;-58
2023/12/07 01:58:43;;;;;;;52.90;27.90;;;;;;;-2.89;72.94;100060.56;109127;1254;71728;-57
2023/12/07 02:01:12;;;;;;;63.20;30.30;;;;;;;-2.90;72.83;100056.85;108393;1254;1002991;-58
2023/12/07 02:03:40;;;;;;;58.60;28.50;;;;;;;-2.94;72.94;100056.55;109211;1256;58986;-58
2023/12/07 02:06:10;;;;;;;64.00;28.30;;;;;;;-2.99;73.01;100053.40;108985;1257;74828;-58
2023/12/07 02:08:41;;;;;;;54.50;27.90;;;;;;;-3.02;73.08;100055.65;109111;1256;67594;-58
2023/12/07 02:11:09;;;;;;;58.70;29.40;;;;;;;-3.02;73.07;100055.98;109152;1256;72691;-58
2023/12/07 02:13:38;;;;;;;56.10;27.10;;;;;;;-3.05;73.04;100051.05;108554;1255;1002835;-58
2023/12/07 02:16:13;;;;;;;59.30;29.60;;;;;;;-3.06;73.15;100056.58;109242;1254;60170;-58
2023/12/07 02:18:54;;;;;;;49.50;25.80;;;;;;;-3.07;73.22;100060.08;109285;1254;74713;-58
2023/12/07 02:21:30;;;;;;;61.00;29.40;;;;;;;-3.02;72.68;100058.08;109253;1254;68861;-59
2023/12/07 02:23:58;;;;;;;46.70;26.40;;;;;;;-3.07;72.66;100057.52;109186;1254;71778;-58
2023/12/07 02:26:35;;;;;;;54.60;28.20;;;;;;;-3.12;72.96;100057.85;109122;1257;61693;-59
2023/12/07 02:29:02;;;;;;;60.00;30.10;;;;;;;-3.15;73.03;100058.90;109095;1254;58957;-58
2023/12/07 02:31:30;;;;;;;57.80;31.30;;;;;;;-3.27;73.45;100056.00;109273;1254;74694;-59
2023/12/07 02:33:58;;;;;;;59.80;31.20;;;;;;;-3.26;73.39;100052.36;109233;1251;66612;-59
2023/12/07 02:36:28;;;;;;;55.00;28.10;;;;;;;-3.31;73.62;100046.73;109596;1251;71749;-61
2023/12/07 02:39:00;;;;;;;57.20;28.60;;;;;;;-3.31;74.14;100047.46;109192;1256;60492;-60
2023/12/07 02:41:28;;;;;;;61.70;27.90;;;;;;;-3.34;74.29;100057.10;109221;1255;58958;-59
2023/12/07 02:43:57;;;;;;;75.30;36.80;;;;;;;-3.36;74.35;100058.84;109174;1256;74418;-58
2023/12/07 02:46:25;;;;;;;82.90;39.30;;;;;;;-3.16;73.19;100066.48;109198;1254;67592;-59
2023/12/07 02:48:53;;;;;;;96.00;43.80;;;;;;;-3.11;72.70;100072.95;109046;1254;72707;-59
2023/12/07 02:51:20;;;;;;;103.00;47.30;;;;;;;-3.11;72.50;100071.21;109005;1256;61777;-59
2023/12/07 02:53:48;;;;;;;116.00;49.20;;;;;;;-3.01;71.71;100069.00;109052;1254;60064;-58
2023/12/07 02:56:15;;;;;;;97.40;44.80;;;;;;;-3.13;72.24;100070.51;108947;1258;74666;-58
2023/12/07 02:58:43;;;;;;;114.80;52.10;;;;;;;-3.16;72.61;100073.37;109008;1259;69292;-59
2023/12/07 03:01:10;;;;;;;106.30;44.10;;;;;;;-3.14;72.39;100076.60;108980;1259;71450;-60
2023/12/07 03:03:40;;;;;;;83.60;41.60;;;;;;;-3.14;72.34;100072.73;108977;1259;60472;-59
2023/12/07 03:06:08;;;;;;;92.50;40.50;;;;;;;-3.10;72.01;100075.61;109003;1258;60081;-58
2023/12/07 03:08:35;;;;;;;83.20;39.70;;;;;;;-3.11;72.04;100078.62;108796;1259;74727;-58
2023/12/07 03:11:03;;;;;;;89.40;39.60;;;;;;;-3.15;72.32;100081.29;109161;1254;68791;-58
2023/12/07 03:13:31;;;;;;;65.90;34.70;;;;;;;-3.16;72.33;100079.83;109136;1254;71418;-59
2023/12/07 03:15:58;;;;;;;86.20;35.90;;;;;;;-3.21;72.53;100077.69;108943;1256;60484;-58
2023/12/07 03:18:26;;;;;;;96.50;38.80;;;;;;;-3.26;72.90;100079.14;109289;1254;60268;-57
2023/12/07 03:20:53;;;;;;;88.00;38.70;;;;;;;-3.28;72.95;100083.24;109286;1254;73974;-57
2023/12/07 03:23:21;;;;;;;69.10;31.70;;;;;;;-3.33;73.38;100080.75;109274;1254;68827;-59
2023/12/07 03:25:48;;;;;;;64.10;31.50;;;;;;;-3.33;73.49;100077.98;109184;1254;72703;-57
2023/12/07 03:28:16;;;;;;;59.40;31.50;;;;;;;-3.25;73.14;100075.04;109528;1252;61757;-57
2023/12/07 03:30:43;;;;;;;59.20;29.60;;;;;;;-3.25;72.81;100077.67;109619;1250;59015;-56
2023/12/07 03:33:11;;;;;;;68.50;34.30;;;;;;;-3.29;72.98;100077.04;109637;1251;73458;-57
2023/12/07 03:35:39;;;;;;;61.10;27.90;;;;;;;-3.20;72.68;100078.02;109367;1250;68580;-58
2023/12/07 03:38:06;;;;;;;56.80;25.90;;;;;;;-3.15;72.30;100082.17;109586;1251;72700;-58
2023/12/07 03:40:34;;;;;;;52.50;27.40;;;;;;;-3.22;72.55;100080.05;109598;1253;60464;-57
2023/12/07 03:43:04;;;;;;;55.90;29.40;;;;;;;-3.27;72.93;100079.84;109589;1250;58958;-58
2023/12/07 03:45:32;;;;;;;64.20;30.10;;;;;;;-3.19;72.44;100077.67;109610;1251;73747;-60
2023/12/07 03:47:59;;;;;;;58.20;28.00;;;;;;;-3.20;72.38;100085.97;109629;1250;68658;-58
2023/12/07 03:50:27;;;;;;;60.50;26.70;;;;;;;-3.24;72.43;100088.97;109593;1253;71477;-58
2023/12/07 03:52:55;;;;;;;70.60;35.70;;;;;;;-3.32;72.80;100093.23;109433;1250;60038;-58
2023/12/07 03:55:22;;;;;;;76.50;37.20;;;;;;;-3.27;72.47;100087.35;109333;1251;59923;-58
2023/12/07 03:57:50;;;;;;;71.50;37.60;;;;;;;-3.29;72.34;100089.61;109354;1251;74834;-59
2023/12/07 04:00:17;;;;;;;85.30;38.80;;;;;;;-3.28;72.20;100086.86;109332;1251;67589;-58
2023/12/07 04:02:45;;;;;;;78.70;34.20;;;;;;;-3.29;72.23;100088.23;109309;1251;72704;-59
2023/12/07 04:05:13;;;;;;;67.70;30.70;;;;;;;-3.37;72.63;100087.79;108563;1253;1002326;-59
2023/12/07 04:07:41;;;;;;;60.40;32.30;;;;;;;-3.36;72.59;100089.29;109659;1250;58947;-58
2023/12/07 04:10:09;;;;;;;58.00;29.50;;;;;;;-3.33;72.37;100092.44;109593;1251;74742;-58
2023/12/07 04:12:37;;;;;;;64.00;31.70;;;;;;;-3.39;72.66;100091.68;109627;1251;67555;-61
2023/12/07 04:15:05;;;;;;;61.20;31.20;;;;;;;-3.35;72.23;100096.05;109595;1251;71694;-57
2023/12/07 04:17:33;;;;;;;73.50;35.90;;;;;;;-3.37;72.36;100098.66;109564;1252;60729;-58
2023/12/07 04:20:01;;;;;;;77.70;37.80;;;;;;;-3.33;71.96;100102.60;109637;1251;60103;-58
2023/12/07 04:22:29;;;;;;;69.40;37.50;;;;;;;-3.33;71.93;100100.36;109462;1251;73841;-58
2023/12/07 04:24:56;;;;;;;62.60;34.70;;;;;;;-3.34;71.96;100106.23;109398;1251;68806;-59
2023/12/07 04:27:24;;;;;;;63.60;32.00;;;;;;;-3.31;71.65;100107.56;109310;1251;71568;-57
2023/12/07 04:29:51;;;;;;;53.30;29.80;;;;;;;-3.33;71.61;100106.14;109569;1252;61712;-58
2023/12/07 04:32:19;;;;;;;59.60;31.60;;;;;;;-3.37;71.81;100108.83;109656;1251;60084;-58
2023/12/07 04:34:46;;;;;;;58.90;27.40;;;;;;;-3.34;71.56;100109.88;109636;1251;74734;-57
2023/12/07 04:37:14;;;;;;;51.70;23.90;;;;;;;-3.35;71.37;100105.46;109632;1251;67546;-58
2023/12/07 04:39:41;;;;;;;39.50;21.20;;;;;;;-3.41;71.24;100102.39;109598;1251;72843;-58
2023/12/07 04:42:09;;;;;;;32.80;17.90;;;;;;;-3.49;71.41;100103.31;109566;1251;60939;-56
2023/12/07 04:44:37;;;;;;;51.60;27.00;;;;;;;-3.55;71.79;100101.96;109591;1253;58984;-57
2023/12/07 04:47:04;;;;;;;53.30;26.90;;;;;;;-3.51;71.38;100099.44;109591;1251;74745;-58
2023/12/07 04:49:32;;;;;;;54.20;25.70;;;;;;;-3.54;71.47;100107.45;109626;1251;67510;-57
2023/12/07 04:51:59;;;;;;;52.40;25.20;;;;;;;-3.44;70.98;100111.03;109612;1253;71447;-57
2023/12/07 04:54:27;;;;;;;56.90;27.30;;;;;;;-3.50;71.26;100109.01;109598;1253;60467;-57
2023/12/07 04:56:55;;;;;;;52.90;26.00;;;;;;;-3.48;71.17;100111.06;109621;1250;59112;-57
2023/12/07 04:59:22;;;;;;;52.30;23.30;;;;;;;-3.54;71.35;100105.59;109593;1253;74724;-57
2023/12/07 05:01:50;;;;;;;54.90;28.50;;;;;;;-3.61;71.73;100101.80;109626;1251;68539;-58
2023/12/07 05:04:18;;;;;;;51.80;26.30;;;;;;;-3.61;71.91;100102.42;109444;1251;72722;-56
2023/12/07 05:06:45;;;;;;;38.20;21.60;;;;;;;-3.61;72.07;100098.91;109285;1253;60448;-56
2023/12/07 05:09:13;;;;;;;45.60;21.90;;;;;;;-3.51;71.60;100102.46;109623;1251;59321;-57
2023/12/07 05:11:40;;;;;;;52.00;27.30;;;;;;;-3.52;71.65;100101.17;109606;1253;74742;-56
2023/12/07 05:14:08;;;;;;;48.70;24.40;;;;;;;-3.49;71.41;100100.84;109602;1251;68505;-57
2023/12/07 05:16:35;;;;;;;38.00;23.20;;;;;;;-3.51;71.37;100094.89;109382;1255;71361;-58
2023/12/07 05:19:03;;;;;;;59.90;28.20;;;;;;;-3.59;71.77;100092.70;109379;1254;60486;-57
2023/12/07 05:21:32;;;;;;;50.50;22.60;;;;;;;-3.59;71.59;100087.17;109425;1254;58954;-57
2023/12/07 05:23:59;;;;;;;53.30;26.10;;;;;;;-3.61;72.03;100082.48;109228;1254;74718;-56
2023/12/07 05:26:27;;;;;;;45.60;23.50;;;;;;;-3.70;72.45;100085.18;109337;1254;67025;-58
2023/12/07 05:28:54;;;;;;;53.60;23.50;;;;;;;-3.71;72.39;100086.88;109314;1254;72757;-58
2023/12/07 05:31:22;;;;;;;62.00;27.60;;;;;;;-3.85;72.86;100084.27;109332;1254;61762;-56
2023/12/07 05:33:49;;;;;;;51.50;27.20;;;;;;;-3.96;73.46;100080.02;109309;1254;58989;-58
2023/12/07 05:36:17;;;;;;;53.80;28.10;;;;;;;-4.08;74.29;100082.58;109120;1254;73742;-58
2023/12/07 05:38:45;;;;;;;44.20;26.60;;;;;;;-4.04;74.31;100086.91;109326;1253;67563;-59
2023/12/07 05:41:12;;;;;;;57.20;24.70;;;;;;;-4.05;74.50;100086.38;109165;1254;72710;-59
2023/12/07 05:43:41;;;;;;;34.30;20.80;;;;;;;-4.03;74.44;100086.30;109153;1254;117842;-57
2023/12/07 05:46:09;;;;;;;48.00;25.00;;;;;;;-4.02;74.37;100088.44;109333;1254;59078;-58
2023/12/07 05:48:37;;;;;;;41.60;20.30;;;;;;;-4.05;74.50;100087.52;109250;1253;74688;-59
2023/12/07 05:51:05;;;;;;;36.70;19.90;;;;;;;-4.02;74.10;100084.83;109621;1251;70956;-57
2023/12/07 05:53:32;;;;;;;44.60;21.80;;;;;;;-4.06;74.27;100078.54;109575;1251;73183;-57
2023/12/07 05:56:01;;;;;;;46.60;20.90;;;;;;;-4.09;74.44;100084.41;109575;1251;61752;-61
2023/12/07 05:58:32;;;;;;;43.90;24.30;;;;;;;-4.05;74.05;100083.86;109588;1251;59549;-58
2023/12/07 06:01:00;;;;;;;;;;;;;;;-4.20;74.97;100084.23;109579;1253;74714;-58
2023/12/07 06:03:28;;;;;;;44.90;23.40;;;;;;;-4.20;75.07;100095.27;109171;1253;68653;-58
2023/12/07 06:05:56;;;;;;;66.40;33.90;;;;;;;-4.08;74.44;100095.35;109589;1251;72748;-58
2023/12/07 06:08:23;;;;;;;60.00;28.80;;;;;;;-4.14;75.04;100091.02;109259;1251;61795;-58
2023/12/07 06:10:50;;;;;;;75.60;30.70;;;;;;;-3.96;74.55;100092.83;109575;1252;59347;-57
2023/12/07 06:13:18;;;;;;;81.60;35.80;;;;;;;-3.75;73.55;100092.20;109598;1251;73434;-56
2023/12/07 06:15:46;;;;;;;65.30;31.00;;;;;;;-3.73;73.53;100092.87;109596;1250;67619;-57
2023/12/07 06:18:13;;;;;;;59.70;26.90;;;;;;;-3.69;73.63;100086.70;109281;1251;71501;-56
2023/12/07 06:20:42;;;;;;;61.60;29.80;;;;;;;-3.81;74.76;100087.89;109582;1251;60478;-57
2023/12/07 06:23:12;;;;;;;56.40;28.40;;;;;;;-3.73;74.82;100088.63;109603;1251;60107;-57
2023/12/07 06:25:40;;;;;;;60.20;28.00;;;;;;;-3.85;75.74;100093.32;109656;1251;74679;-58
2023/12/07 06:28:08;;;;;;;50.10;24.60;;;;;;;-3.63;75.17;100093.85;109601;1251;66825;-57
2023/12/07 06:30:35;;;;;;;53.50;26.50;;;;;;;-3.61;75.00;100090.33;109646;1251;72771;-61
2023/12/07 06:33:03;;;;;;;56.50;30.00;;;;;;;-3.59;75.25;100085.62;109595;1253;60457;-58
2023/12/07 06:35:30;;;;;;;65.70;34.40;;;;;;;-3.44;74.59;100089.66;109582;1251;59456;-58
2023/12/07 06:37:58;;;;;;;61.80;27.30;;;;;;;-3.24;73.96;100095.59;109591;1251;74734;-57
2023/12/07 06:40:25;;;;;;;89.40;36.60;;;;;;;-3.26;73.86;100091.31;109625;1251;66594;-57
2023/12/07 06:42:53;;;;;;;70.70;29.40;;;;;;;-3.25;73.70;100085.08;109590;1251;72718;-57
2023/12/07 06:45:20;;;;;;;100.80;40.70;;;;;;;-3.29;74.07;100082.09;109427;1252;60497;-57
2023/12/07 06:47:48;;;;;;;127.90;49.80;;;;;;;-3.06;73.40;100084.38;109592;1256;58882;-58
2023/12/07 06:50:15;;;;;;;160.30;59.60;;;;;;;-2.82;72.18;100082.48;109604;1251;74741;-57
2023/12/07 06:52:44;;;;;;;79.10;35.40;;;;;;;-2.99;73.04;100073.55;109459;1251;68530;-58
2023/12/07 06:55:12;;;;;;;87.10;36.60;;;;;;;-3.14;74.27;100074.50;109341;1251;72716;-57
2023/12/07 06:57:39;;;;;;;65.00;33.00;;;;;;;-2.96;73.97;100075.85;109574;1251;61731;-56
2023/12/07 07:00:10;;;;;;;62.50;29.10;;;;;;;-3.02;74.32;100079.28;109601;1251;58937;-56
2023/12/07 07:02:39;;;;;;;59.60;30.00;;;;;;;-2.82;73.94;100081.84;109578;1251;74730;-56
2023/12/07 07:05:07;;;;;;;51.10;23.70;;;;;;;-3.09;75.08;100076.25;109325;1251;68870;-57
2023/12/07 07:07:35;;;;;;;44.00;26.70;;;;;;;-3.22;76.08;100086.64;109320;1251;72744;-57
2023/12/07 07:10:02;;;;;;;71.80;33.10;;;;;;;-3.08;75.97;100089.29;109304;1253;61731;-57
2023/12/07 07:12:30;;;;;;;50.90;21.80;;;;;;;-3.05;75.36;100089.58;109607;1251;60090;-57
2023/12/07 07:14:58;;;;;;;80.50;31.80;;;;;;;-3.07;75.92;100094.41;109433;1251;73745;-57
2023/12/07 07:17:26;;;;;;;55.80;26.90;;;;;;;-2.82;74.66;100096.70;109650;1251;68804;-57
2023/12/07 07:19:55;;;;;;;54.80;25.90;;;;;;;-2.82;75.25;100103.53;109590;1251;72694;-58
2023/12/07 07:22:22;;;;;;;55.60;26.60;;;;;;;-2.84;74.98;100109.51;109584;1253;61798;-57
2023/12/07 07:24:50;;;;;;;54.20;26.00;;;;;;;-2.82;74.79;100120.55;109643;1251;58940;-59
2023/12/07 07:27:17;;;;;;;62.70;31.00;;;;;;;-2.68;73.95;100131.41;109678;1251;74747;-56
2023/12/07 07:29:46;;;;;;;43.80;24.60;;;;;;;-2.47;73.54;100139.11;109608;1251;69060;-58
2023/12/07 07:32:13;;;;;;;54.30;28.50;;;;;;;-2.39;73.27;100140.61;109628;1251;72732;-58
2023/12/07 07:34:41;;;;;;;48.30;24.80;;;;;;;-2.38;72.87;100143.05;109533;1253;61714;-57
2023/12/07 07:37:08;;;;;;;41.30;23.90;;;;;;;-2.41;72.85;100145.48;109579;1253;60092;-58
2023/12/07 07:39:36;;;;;;;46.40;21.10;;;;;;;-2.25;72.71;100157.77;109626;1251;75282;-58
2023/12/07 07:42:04;;;;;;;69.90;31.60;;;;;;;-2.30;72.73;100153.67;109620;1252;67602;-57
2023/12/07 07:44:32;;;;;;;53.20;26.10;;;;;;;-2.13;71.89;100155.52;109539;1253;72767;-58
2023/12/07 07:46:59;;;;;;;49.10;26.30;;;;;;;-2.19;71.68;100157.82;109599;1253;61483;-57
2023/12/07 07:49:27;;;;;;;47.30;24.70;;;;;;;-2.16;71.55;100162.98;109654;1251;59194;-57
2023/12/07 07:51:55;;;;;;;50.80;27.40;;;;;;;-1.91;71.68;100170.01;109635;1255;74771;-57
2023/12/07 07:54:22;;;;;;;52.10;24.90;;;;;;;-1.71;70.39;100174.31;109573;1251;68533;-58
2023/12/07 07:56:50;;;;;;;55.50;26.70;;;;;;;-1.63;69.60;100174.86;109565;1251;71449;-58
2023/12/07 07:59:17;;;;;;;64.90;31.10;;;;;;;-1.81;69.62;100176.20;109307;1253;60464;-58
2023/12/07 08:01:47;;;;;;;54.10;28.10;;;;;;;-1.88;70.13;100178.88;109633;1251;60128;-56
2023/12/07 08:04:15;;;;;;;49.50;23.70;;;;;;;-1.88;70.07;100179.54;109296;1251;72499;-56
2023/12/07 08:06:43;;;;;;;69.40;34.70;;;;;;;-1.77;70.03;100183.84;109279;1251;68518;-56
2023/12/07 08:09:10;;;;;;;50.80;24.50;;;;;;;-1.65;69.86;100181.36;109330;1251;72726;-57
2023/12/07 08:11:38;;;;;;;64.90;31.20;;;;;;;-1.85;70.17;100178.92;109635;1251;61883;-58
2023/12/07 08:14:06;;;;;;;65.10;28.30;;;;;;;-1.75;70.56;100175.55;109288;1251;59225;-59
2023/12/07 08:16:33;;;;;;;49.20;25.00;;;;;;;-1.80;70.02;100176.58;109436;1251;74701;-58
2023/12/07 08:19:01;;;;;;;88.70;35.20;;;;;;;-1.58;69.57;100179.59;109628;1250;68830;-57
2023/12/07 08:21:29;;;;;;;65.80;30.50;;;;;;;-1.59;69.20;100181.80;109622;1252;72891;-57
2023/12/07 08:23:58;;;;;;;65.10;29.20;;;;;;;-1.56;69.30;100179.56;109645;1254;61776;-56
2023/12/07 08:26:27;;;;;;;67.30;30.20;;;;;;;-1.49;69.79;100180.14;109270;1251;60067;-57
2023/12/07 08:28:56;;;;;;;69.10;32.90;;;;;;;-1.46;69.22;100181.53;109599;1253;74740;-57
2023/12/07 08:31:24;;;;;;;65.30;27.80;;;;;;;-1.38;69.39;100183.30;109556;1251;68552;-57
2023/12/07 08:33:52;;;;;;;46.60;23.30;;;;;;;-1.65;69.73;100180.12;109400;1257;72782;-57
2023/12/07 08:36:20;;;;;;;69.60;34.90;;;;;;;-1.58;70.06;100180.87;109366;1253;61749;-57
2023/12/07 08:38:48;;;;;;;75.40;33.60;;;;;;;-1.28;69.34;100182.77;109616;1251;58990;-58
2023/12/07 08:41:15;;;;;;;69.80;34.40;;;;;;;-1.25;68.83;100174.77;109627;1251;74774;-57
2023/12/07 08:43:43;;;;;;;64.40;30.60;;;;;;;-1.28;69.10;100170.20;109570;1253;67639;-60
2023/12/07 08:46:11;;;;;;;64.10;28.40;;;;;;;-1.36;69.45;100170.27;109548;1253;72920;-58
2023/12/07 08:48:38;;;;;;;56.60;25.60;;;;;;;-1.31;69.29;100162.73;109571;1251;60743;-57
2023/12/07 08:51:09;;;;;;;48.00;24.20;;;;;;;-1.09;69.05;100161.42;109590;1251;59053;-59
2023/12/07 08:53:38;;;;;;;50.70;25.20;;;;;;;-1.16;68.89;100157.95;109558;1250;73407;-57
2023/12/07 08:56:05;;;;;;;;;;;;;;;-1.01;69.22;100158.65;109585;1251;68858;-57
2023/12/07 08:58:33;;;;;;;46.70;24.20;;;;;;;-1.00;68.91;100156.98;109617;1251;72742;-57
2023/12/07 09:01:01;;;;;;;56.70;27.50;;;;;;;-0.97;68.78;100159.13;109560;1254;61806;-58
2023/12/07 09:03:31;;;;;;;62.30;30.40;;;;;;;-1.10;68.92;100149.43;109571;1251;60098;-57
2023/12/07 09:06:00;;;;;;;62.60;28.50;;;;;;;-1.18;69.71;100148.41;109670;1255;73085;-57
2023/12/07 09:08:28;;;;;;;59.80;28.30;;;;;;;-1.02;69.68;100140.05;109647;1251;68800;-57
2023/12/07 09:10:55;;;;;;;68.60;24.00;;;;;;;-0.94;69.07;100141.67;109375;1254;71402;-57
2023/12/07 09:13:23;;;;;;;51.60;24.90;;;;;;;-1.09;69.44;100134.95;109281;1253;61786;-58
2023/12/07 09:15:51;;;;;;;131.90;46.20;;;;;;;-1.05;69.65;100134.42;109240;1256;60117;-58
2023/12/07 09:18:18;;;;;;;59.40;25.80;;;;;;;-0.89;69.37;100130.05;109171;1254;74852;-57
2023/12/07 09:20:46;;;;;;;40.50;20.90;;;;;;;-1.02;69.45;100126.52;108520;1254;1002315;-57
2023/12/07 09:23:16;;;;;;;60.10;31.30;;;;;;;-1.09;70.11;100119.30;109238;1256;71441;-57
2023/12/07 09:25:44;;;;;;;51.50;28.80;;;;;;;-0.91;69.95;100115.81;109229;1254;60458;-57
2023/12/07 09:28:12;;;;;;;43.90;22.00;;;;;;;-1.04;70.26;100118.25;109128;1254;58869;-58
2023/12/07 09:30:40;;;;;;;37.30;20.70;;;;;;;-1.16;70.76;100122.16;109279;1257;73468;-58
2023/12/07 09:33:07;;;;;;;45.80;22.50;;;;;;;-1.17;70.90;100119.41;109262;1254;68032;-58
2023/12/07 09:35:35;;;;;;;39.70;20.60;;;;;;;-1.21;71.04;100114.95;109297;1254;72710;-57
2023/12/07 09:38:03;;;;;;;50.20;26.40;;;;;;;-1.23;71.70;100119.59;109057;1256;60554;-57
2023/12/07 09:40:31;;;;;;;54.80;27.70;;;;;;;-1.16;71.27;100118.11;109301;1254;60108;-60
2023/12/07 09:42:58;;;;;;;59.40;27.80;;;;;;;-1.01;71.22;100119.34;109135;1251;74741;-58
2023/12/07 09:45:26;;;;;;;46.30;22.00;;;;;;;-1.04;70.96;100115.29;109515;1251;67714;-58
2023/12/07 09:47:55;;;;;;;39.30;20.80;;;;;;;-1.34;71.66;100113.16;109437;1251;71730;-56
2023/12/07 09:50:27;;;;;;;51.70;21.50;;;;;;;-1.20;71.56;100109.55;109630;1251;60459;-57
2023/12/07 09:52:57;;;;;;;50.90;24.90;;;;;;;-1.27;71.70;100108.92;109644;1256;59014;-57
2023/12/07 09:55:35;;;;;;;45.90;20.20;;;;;;;-1.17;71.34;100106.09;109283;1251;73470;-58
2023/12/07 09:58:05;;;;;;;75.20;30.20;;;;;;;-1.13;70.84;100105.67;109409;1257;67214;-57
2023/12/07 10:00:36;;;;;;;63.30;28.60;;;;;;;-1.04;70.97;100109.85;109258;1254;71516;-57
2023/12/07 10:03:07;;;;;;;75.90;32.90;;;;;;;-1.05;71.11;100107.53;109269;1254;60463;-58
2023/12/07 10:05:57;;;;;;;34.80;20.00;;;;;;;-0.94;70.57;100105.08;108511;1254;1002335;-58
2023/12/07 10:08:29;;;;;;;53.00;26.60;;;;;;;-1.14;70.91;100103.73;109274;1254;74810;-58
2023/12/07 10:11:06;;;;;;;52.50;26.80;;;;;;;-1.02;70.89;100102.11;109258;1259;67619;-70
2023/12/07 10:13:35;;;;;;;55.40;25.50;;;;;;;-1.13;71.38;100101.88;109255;1257;71886;-58
2023/12/07 10:16:13;;;;;;;44.90;20.30;;;;;;;-1.17;71.68;100107.41;109259;1254;61902;-59
2023/12/07 10:18:41;;;;;;;41.30;18.70;;;;;;;-1.06;70.95;100100.00;109257;1254;58951;-57
2023/12/07 10:21:12;;;;;;;47.50;23.60;;;;;;;-1.14;71.06;100093.71;109083;1254;74715;-58
2023/12/07 10:23:41;;;;;;;54.20;25.50;;;;;;;-1.23;71.73;100088.54;109308;1254;67709;-56
2023/12/07 10:26:10;;;;;;;76.60;36.20;;;;;;;-1.14;71.64;100083.11;109290;1254;70421;-57
2023/12/07 10:28:38;;;;;;;43.40;23.60;;;;;;;-1.19;71.27;100081.92;109217;1254;61712;-57
2023/12/07 10:31:09;;;;;;;;;;;;;;;-1.29;71.36;100081.42;109444;1251;60260;-57
2023/12/07 10:33:38;;;;;;;43.60;22.40;;;;;;;-1.38;72.02;100079.05;109325;1251;74740;-58
2023/12/07 10:36:06;;;;;;;56.50;26.60;;;;;;;-1.34;72.31;100081.61;109616;1251;67556;-59
2023/12/07 10:38:34;;;;;;;;;;;;;;;-1.29;71.90;100083.91;109595;1254;72732;-60
2023/12/07 10:41:06;;;;;;;35.50;20.00;;;;;;;-1.32;71.97;100086.46;109567;1253;61601;-57
2023/12/07 10:43:38;;;;;;;58.20;24.30;;;;;;;-1.32;71.71;100085.41;109445;1251;60067;-58
2023/12/07 10:46:06;;;;;;;58.70;27.00;;;;;;;-1.27;71.81;100081.26;109568;1253;74607;-58
2023/12/07 10:48:33;;;;;;;50.70;24.20;;;;;;;-1.22;71.51;100078.56;109189;1254;68861;-57
2023/12/07 10:51:03;;;;;;;44.60;23.60;;;;;;;-1.34;71.76;100078.45;109438;1253;72690;-57
2023/12/07 10:53:40;;;;;;;49.60;24.90;;;;;;;-1.27;71.88;100075.92;109305;1254;60463;-57
2023/12/07 10:56:22;;;;;;;57.10;30.50;;;;;;;-1.20;71.30;100072.77;109455;1253;60185;-58
2023/12/07 10:58:50;;;;;;;54.10;26.50;;;;;;;-1.13;71.20;100074.11;109234;1254;72477;-58
2023/12/07 11:01:17;;;;;;;37.40;18.60;;;;;;;-1.33;71.37;100076.58;109253;1257;66863;-58
2023/12/07 11:03:45;;;;;;;40.30;21.00;;;;;;;-1.50;71.76;100072.02;109150;1257;71491;-57
2023/12/07 11:06:13;;;;;;;36.10;19.70;;;;;;;-1.55;72.68;100076.78;109075;1257;61749;-58